Terminal Aerodrome Forecast
Issued by NWS Charleston, WV

Home | Current Version | Previous Version | Text Only | Print | Product List | Glossary On
Versions: 1 2 3 4 5 6 7 8 9 10 11 12 13 14 15 16 17 18 19 20 21 22 23 24 25 26 27 28 29 30 31 32 33
000
FTUS41 KRLX 221700
TAFHTS
TAF
KHTS 221724Z 2218/2318 18004KT P6SM FEW045
     FM222300 00000KT 6SM BR FEW050
     FM231300 22005KT P6SM SCT050
     FM231600 24007KT P6SM VCTS SCT045CB=

USA.gov is the U.S. government's official web portal to all federal, state and local government web resources and services.